ADDS METAR Data INFO
IDs: Format: Raw Decoded Include TAF

Data at: 0027 UTC 15 Dec 2017

KIAD 142352Z 35011KT 10SM FEW060 SCT120 OVC200 01/M08 A3004 RMK AO2 SLP176 T00061083 10039 20006 53029
KIAD 142252Z 33010KT 10SM FEW060 SCT120 BKN250 01/M08 A3001 RMK AO2 SLP165 T00061078
KIAD 142152Z 33010KT 10SM FEW060 BKN120 BKN250 01/M08 A2998 RMK AO2 SLP156 T00111083
KIAD 142052Z 32013KT 10SM FEW050 SCT120 BKN250 02/M08 A2996 RMK AO2 SLP145 T00221083 53023
KIAD 141952Z 33014KT 10SM FEW050 SCT120 BKN250 04/M08 A2992 RMK AO2 SLP135 T00391083
KIAD 141852Z 32014G22KT 10SM SCT050 BKN250 04/M09 A2989 RMK AO2 SLP125 T00391089
KIAD 141752Z COR 32010G19KT 10SM BKN049 BKN250 03/M08 A2989 RMK AO2 PK WND 33026/1657 SLP122 T00281083 10044 21033 51045
KIAD 141652Z 32019G24KT 10SM BKN045 BKN060 04/M08 A2987 RMK AO2 PK WND 32027/1623 SLP116 T00391078
KIAD 141552Z COR 30013G24KT 10SM BKN045 BKN060 03/M07 A2986 RMK AO2 PRESRR PK WND 31032/1515 SLP114 T00281067
KIAD 141452Z 30024G31KT 10SM BKN049 04/M05 A2975 RMK AO2 PK WND 30034/1437 PRESRR SLP076 T00391050 51047
KIAD 141352Z 30021G28KT 10SM BKN050 04/M05 A2971 RMK AO2 PK WND 30028/1352 SLP061 T00391050
KIAD 141252Z 18003KT 10SM SCT065 SCT110 M01/M07 A2966 RMK AO2 SLP046 T10111072
KIAD 141152Z 21003KT 10SM SCT070 BKN095 M02/M08 A2961 RMK AO2 SLP030 T10171078 10006 21033 53039
KIAD 141052Z 19005KT 10SM SCT060 BKN080 M01/M07 A2956 RMK AO2 SLP012 T10111072
KIAD 140952Z 00000KT 10SM SCT070 SCT110 M01/M08 A2951 RMK AO2 SLP997 T10111083
KIAD 140852Z 19008KT 10SM SCT080 M01/M09 A2949 RMK AO2 SLP990 T10061089 56014
KIAD 140752Z 18007KT 10SM BKN075 00/M09 A2950 RMK AO2 SLP993 T00001094
KIAD 140652Z 17007KT 10SM SCT110 00/M10 A2951 RMK AO2 SLP997 T00001100
KIAD 140552Z 18008KT 10SM FEW080 BKN110 01/M11 A2954 RMK AO2 SLP004 T00061106 10011 20000 56035
KIAD 140452Z 17008KT 10SM SCT080 BKN120 01/M11 A2957 RMK AO2 SLP014 T00061111 400111067
KIAD 140352Z 16008KT 10SM BKN055 OVC085 01/M11 A2960 RMK AO2 SLP024 T00111111
KIAD 140252Z 18005KT 10SM BKN060 OVC100 01/M12 A2964 RMK AO2 SLP039 T00061117 55020
KIAD 140152Z 17008KT 10SM FEW060 BKN100 OVC110 01/M12 A2963 RMK AO2 SLP035 T00061122
KIAD 140052Z 15007KT 10SM BKN049 OVC065 01/M13 A2966 RMK AO2 SLP047 T00061128
KIAD 132352Z 17007KT 10SM BKN035 OVC070 00/M13 A2970 RMK AO2 SLP061 T00001133 10011 21011 58017
KIAD 132252Z 17007KT 10SM BKN055 OVC100 00/M13 A2973 RMK AO2 SLP069 T00001133
KIAD 132152Z 19008KT 10SM BKN050 BKN120 00/M13 A2974 RMK AO2 SLP074 T00001133
KIAD 132052Z 24007KT 10SM BKN055 BKN120 01/M14 A2975 RMK AO2 SLP078 T00061139 56014
KIAD 131952Z 25006KT 10SM FEW060 FEW250 01/M14 A2976 RMK AO2 SLP080 T00061144
KIAD 131852Z 26008G14KT 10SM FEW055 FEW180 SCT250 00/M13 A2978 RMK AO2 SLP088 T00001133
KIAD 131752Z 27010G17KT 240V320 10SM FEW055 FEW250 00/M13 A2979 RMK AO2 SLP091 T00001133 10000 21067 58024
KIAD 131652Z 28013G22KT 10SM FEW055 FEW250 M02/M14 A2982 RMK AO2 PK WND 29028/1555 SLP101 T10171144
KIAD 131552Z 28016G21KT 10SM FEW055 FEW250 M02/M14 A2984 RMK AO2 PK WND 30029/1456 SLP110 T10221144
KIAD 131452Z 30017G26KT 10SM FEW055 M04/M15 A2986 RMK AO2 PK WND 30028/1442 SLP116 T10391150 51009
KIAD 131352Z 30013G22KT 10SM FEW060 M05/M17 A2986 RMK AO2 SLP116 T10501167
KIAD 131252Z 29017G26KT 10SM FEW060 M07/M17 A2985 RMK AO2 PK WND 31029/1222 SLP112 T10671172